sensor_id;sensor_type;location;lat;lon;timestamp;temperature;humidity
26262;DHT22;13988;52.446;13.280;2024-01-10T00:02:23;-7.00;99.90
26262;DHT22;13988;52.446;13.280;2024-01-10T00:04:49;-7.00;99.90
26262;DHT22;13988;52.446;13.280;2024-01-10T00:07:14;-7.00;99.90
26262;DHT22;13988;52.446;13.280;2024-01-10T00:09:40;-7.00;99.90
26262;DHT22;13988;52.446;13.280;2024-01-10T00:12:06;-7.00;99.90
26262;DHT22;13988;52.446;13.280;2024-01-10T00:14:31;-7.00;99.90
26262;DHT22;13988;52.446;13.280;2024-01-10T00:16:57;-7.00;99.90
26262;DHT22;13988;52.446;13.280;2024-01-10T00:19:22;-7.00;99.90
26262;DHT22;13988;52.446;13.280;2024-01-10T00:21:48;-7.10;99.90
26262;DHT22;13988;52.446;13.280;2024-01-10T00:24:14;-7.10;99.90
26262;DHT22;13988;52.446;13.280;2024-01-10T00:26:39;-7.00;99.90
26262;DHT22;13988;52.446;13.280;2024-01-10T00:29:05;-7.00;99.90
26262;DHT22;13988;52.446;13.280;2024-01-10T00:31:31;-7.10;99.90
26262;DHT22;13988;52.446;13.280;2024-01-10T00:33:56;-7.10;99.90
26262;DHT22;13988;52.446;13.280;2024-01-10T00:36:22;-7.00;99.90
26262;DHT22;13988;52.446;13.280;2024-01-10T00:38:47;-7.10;99.90
26262;DHT22;13988;52.446;13.280;2024-01-10T00:41:13;-7.10;99.90
26262;DHT22;13988;52.446;13.280;2024-01-10T00:43:39;-7.10;99.90
26262;DHT22;13988;52.446;13.280;2024-01-10T00:46:04;-7.10;99.90
26262;DHT22;13988;52.446;13.280;2024-01-10T00:48:30;-7.10;99.90
26262;DHT22;13988;52.446;13.280;2024-01-10T00:50:56;-7.10;99.90
26262;DHT22;13988;52.446;13.280;2024-01-10T00:53:21;-7.20;99.90
26262;DHT22;13988;52.446;13.280;2024-01-10T00:55:47;-7.20;99.90
26262;DHT22;13988;52.446;13.280;2024-01-10T00:58:13;-7.20;99.90
26262;DHT22;13988;52.446;13.280;2024-01-10T01:00:38;-7.20;99.90
26262;DHT22;13988;52.446;13.280;2024-01-10T01:03:05;-7.20;99.90
26262;DHT22;13988;52.446;13.280;2024-01-10T01:05:31;-7.10;99.90
26262;DHT22;13988;52.446;13.280;2024-01-10T01:07:56;-7.20;99.90
26262;DHT22;13988;52.446;13.280;2024-01-10T01:10:22;-7.30;99.90
26262;DHT22;13988;52.446;13.280;2024-01-10T01:12:48;-7.20;99.90
26262;DHT22;13988;52.446;13.280;2024-01-10T01:15:13;-7.20;99.90
26262;DHT22;13988;52.446;13.280;2024-01-10T01:17:39;-7.20;99.90
26262;DHT22;13988;52.446;13.280;2024-01-10T01:20:06;-7.20;99.90
26262;DHT22;13988;52.446;13.280;2024-01-10T01:22:31;-7.20;99.90
26262;DHT22;13988;52.446;13.280;2024-01-10T01:24:57;-7.20;99.90
26262;DHT22;13988;52.446;13.280;2024-01-10T01:27:23;-7.20;99.90
26262;DHT22;13988;52.446;13.280;2024-01-10T01:29:49;-7.20;99.90
26262;DHT22;13988;52.446;13.280;2024-01-10T01:32:14;-7.30;99.90
26262;DHT22;13988;52.446;13.280;2024-01-10T01:34:40;-7.30;99.90
26262;DHT22;13988;52.446;13.280;2024-01-10T01:37:06;-7.30;99.90
26262;DHT22;13988;52.446;13.280;2024-01-10T01:39:31;-7.30;99.90
26262;DHT22;13988;52.446;13.280;2024-01-10T01:41:57;-7.30;99.90
26262;DHT22;13988;52.446;13.280;2024-01-10T01:44:23;-7.30;99.90
26262;DHT22;13988;52.446;13.280;2024-01-10T01:46:49;-7.30;99.90
26262;DHT22;13988;52.446;13.280;2024-01-10T01:49:15;-7.30;99.90
26262;DHT22;13988;52.446;13.280;2024-01-10T01:51:40;-7.40;99.90
26262;DHT22;13988;52.446;13.280;2024-01-10T01:54:07;-7.40;99.90
26262;DHT22;13988;52.446;13.280;2024-01-10T01:56:40;-7.40;99.90
26262;DHT22;13988;52.446;13.280;2024-01-10T01:59:06;-7.40;99.90
26262;DHT22;13988;52.446;13.280;2024-01-10T02:01:32;-7.40;99.90
26262;DHT22;13988;52.446;13.280;2024-01-10T02:03:59;-7.40;99.90
26262;DHT22;13988;52.446;13.280;2024-01-10T02:06:26;-7.40;99.90
26262;DHT22;13988;52.446;13.280;2024-01-10T02:08:51;-7.40;99.90
26262;DHT22;13988;52.446;13.280;2024-01-10T02:11:17;-7.40;99.90
26262;DHT22;13988;52.446;13.280;2024-01-10T02:13:44;-7.40;99.90
26262;DHT22;13988;52.446;13.280;2024-01-10T02:16:10;-7.40;99.90
26262;DHT22;13988;52.446;13.280;2024-01-10T02:18:38;-7.40;99.90
26262;DHT22;13988;52.446;13.280;2024-01-10T02:21:03;-7.50;99.90
26262;DHT22;13988;52.446;13.280;2024-01-10T02:23:29;-7.50;99.90
26262;DHT22;13988;52.446;13.280;2024-01-10T02:25:54;-7.50;99.90
26262;DHT22;13988;52.446;13.280;2024-01-10T02:28:20;-7.40;99.90
26262;DHT22;13988;52.446;13.280;2024-01-10T02:30:49;-7.40;99.90
26262;DHT22;13988;52.446;13.280;2024-01-10T02:33:15;-7.30;99.90
26262;DHT22;13988;52.446;13.280;2024-01-10T02:35:40;-7.40;99.90
26262;DHT22;13988;52.446;13.280;2024-01-10T02:38:06;-7.40;99.90
26262;DHT22;13988;52.446;13.280;2024-01-10T02:40:32;-7.40;99.90
26262;DHT22;13988;52.446;13.280;2024-01-10T02:42:57;-7.40;99.90
26262;DHT22;13988;52.446;13.280;2024-01-10T02:45:23;-7.40;99.90
26262;DHT22;13988;52.446;13.280;2024-01-10T02:47:48;-7.40;99.90
26262;DHT22;13988;52.446;13.280;2024-01-10T02:50:14;-7.50;99.90
26262;DHT22;13988;52.446;13.280;2024-01-10T02:52:40;-7.50;99.90
26262;DHT22;13988;52.446;13.280;2024-01-10T02:55:05;-7.50;99.90
26262;DHT22;13988;52.446;13.280;2024-01-10T02:57:32;-7.50;99.90
26262;DHT22;13988;52.446;13.280;2024-01-10T02:59:57;-7.50;99.90
26262;DHT22;13988;52.446;13.280;2024-01-10T03:02:23;-7.50;99.90
26262;DHT22;13988;52.446;13.280;2024-01-10T03:04:49;-7.40;99.90
26262;DHT22;13988;52.446;13.280;2024-01-10T03:07:14;-7.40;99.90
26262;DHT22;13988;52.446;13.280;2024-01-10T03:09:40;-7.30;99.90
26262;DHT22;13988;52.446;13.280;2024-01-10T03:12:06;-7.20;99.90
26262;DHT22;13988;52.446;13.280;2024-01-10T03:14:33;-7.10;99.90
26262;DHT22;13988;52.446;13.280;2024-01-10T03:16:59;-7.10;99.90
26262;DHT22;13988;52.446;13.280;2024-01-10T03:19:24;-7.10;99.90
26262;DHT22;13988;52.446;13.280;2024-01-10T03:21:51;-7.20;99.90
26262;DHT22;13988;52.446;13.280;2024-01-10T03:24:16;-7.20;99.90
26262;DHT22;13988;52.446;13.280;2024-01-10T03:26:43;-7.20;99.90
26262;DHT22;13988;52.446;13.280;2024-01-10T03:29:08;-7.30;99.90
26262;DHT22;13988;52.446;13.280;2024-01-10T03:31:34;-7.30;99.90
26262;DHT22;13988;52.446;13.280;2024-01-10T03:33:59;-7.30;99.90
26262;DHT22;13988;52.446;13.280;2024-01-10T03:36:25;-7.30;99.90
26262;DHT22;13988;52.446;13.280;2024-01-10T03:38:51;-7.30;99.90
26262;DHT22;13988;52.446;13.280;2024-01-10T03:41:18;-7.40;99.90
26262;DHT22;13988;52.446;13.280;2024-01-10T03:43:44;-7.40;99.90
26262;DHT22;13988;52.446;13.280;2024-01-10T03:46:11;-7.30;99.90
26262;DHT22;13988;52.446;13.280;2024-01-10T03:48:37;-7.30;99.90
26262;DHT22;13988;52.446;13.280;2024-01-10T03:51:04;-7.20;99.90
26262;DHT22;13988;52.446;13.280;2024-01-10T03:53:30;-7.10;99.90
26262;DHT22;13988;52.446;13.280;2024-01-10T03:55:56;-7.10;99.90
26262;DHT22;13988;52.446;13.280;2024-01-10T03:58:23;-7.10;99.90
26262;DHT22;13988;52.446;13.280;2024-01-10T04:00:49;-7.00;99.90
26262;DHT22;13988;52.446;13.280;2024-01-10T04:03:14;-7.10;99.90
26262;DHT22;13988;52.446;13.280;2024-01-10T04:05:41;-7.20;99.90
26262;DHT22;13988;52.446;13.280;2024-01-10T04:08:07;-7.30;99.90
26262;DHT22;13988;52.446;13.280;2024-01-10T04:10:33;-7.30;99.90
26262;DHT22;13988;52.446;13.280;2024-01-10T04:12:58;-7.30;99.90
26262;DHT22;13988;52.446;13.280;2024-01-10T04:15:24;-7.30;99.90
26262;DHT22;13988;52.446;13.280;2024-01-10T04:17:49;-7.30;99.90
26262;DHT22;13988;52.446;13.280;2024-01-10T04:20:15;-7.40;99.90
26262;DHT22;13988;52.446;13.280;2024-01-10T04:22:41;-7.40;99.90
26262;DHT22;13988;52.446;13.280;2024-01-10T04:25:07;-7.40;99.90
26262;DHT22;13988;52.446;13.280;2024-01-10T04:27:33;-7.50;99.90
26262;DHT22;13988;52.446;13.280;2024-01-10T04:29:59;-7.50;99.90
26262;DHT22;13988;52.446;13.280;2024-01-10T04:32:24;-7.50;99.90
26262;DHT22;13988;52.446;13.280;2024-01-10T04:34:50;-7.50;99.90
26262;DHT22;13988;52.446;13.280;2024-01-10T04:37:16;-7.50;99.90
26262;DHT22;13988;52.446;13.280;2024-01-10T04:39:42;-7.50;99.90
26262;DHT22;13988;52.446;13.280;2024-01-10T04:42:10;-7.60;99.90
26262;DHT22;13988;52.446;13.280;2024-01-10T04:44:37;-7.60;99.90
26262;DHT22;13988;52.446;13.280;2024-01-10T04:47:03;-7.60;99.90
26262;DHT22;13988;52.446;13.280;2024-01-10T04:49:29;-7.50;99.90
26262;DHT22;13988;52.446;13.280;2024-01-10T04:51:54;-7.50;99.90
26262;DHT22;13988;52.446;13.280;2024-01-10T04:54:20;-7.50;99.90
26262;DHT22;13988;52.446;13.280;2024-01-10T04:56:46;-7.50;99.90
26262;DHT22;13988;52.446;13.280;2024-01-10T04:59:12;-7.70;99.90
26262;DHT22;13988;52.446;13.280;2024-01-10T05:01:37;-7.70;99.90
26262;DHT22;13988;52.446;13.280;2024-01-10T05:04:03;-7.70;99.90
26262;DHT22;13988;52.446;13.280;2024-01-10T05:06:29;-7.70;99.90
26262;DHT22;13988;52.446;13.280;2024-01-10T05:08:55;-7.70;99.90
26262;DHT22;13988;52.446;13.280;2024-01-10T05:11:24;-7.80;99.90
26262;DHT22;13988;52.446;13.280;2024-01-10T05:13:50;-7.70;99.90
26262;DHT22;13988;52.446;13.280;2024-01-10T05:16:16;-7.70;99.90
26262;DHT22;13988;52.446;13.280;2024-01-10T05:18:42;-7.70;99.90
26262;DHT22;13988;52.446;13.280;2024-01-10T05:21:08;-7.50;99.90
26262;DHT22;13988;52.446;13.280;2024-01-10T05:23:34;-7.50;99.90
26262;DHT22;13988;52.446;13.280;2024-01-10T05:25:59;-7.40;99.90
26262;DHT22;13988;52.446;13.280;2024-01-10T05:28:25;-7.40;99.90
26262;DHT22;13988;52.446;13.280;2024-01-10T05:30:50;-7.50;99.90
26262;DHT22;13988;52.446;13.280;2024-01-10T05:33:16;-7.50;99.90
26262;DHT22;13988;52.446;13.280;2024-01-10T05:35:42;-7.60;99.90
26262;DHT22;13988;52.446;13.280;2024-01-10T05:38:07;-7.60;99.90
26262;DHT22;13988;52.446;13.280;2024-01-10T05:40:33;-7.70;99.90
26262;DHT22;13988;52.446;13.280;2024-01-10T05:42:59;-7.70;99.90
26262;DHT22;13988;52.446;13.280;2024-01-10T05:45:25;-7.70;99.90
26262;DHT22;13988;52.446;13.280;2024-01-10T05:47:52;-7.60;99.90
26262;DHT22;13988;52.446;13.280;2024-01-10T05:50:17;-7.60;99.90
26262;DHT22;13988;52.446;13.280;2024-01-10T05:52:43;-7.50;99.90
26262;DHT22;13988;52.446;13.280;2024-01-10T05:55:09;-7.50;99.90
26262;DHT22;13988;52.446;13.280;2024-01-10T05:57:36;-7.60;99.90
26262;DHT22;13988;52.446;13.280;2024-01-10T06:00:02;-7.60;99.90
26262;DHT22;13988;52.446;13.280;2024-01-10T06:02:28;-7.50;99.90
26262;DHT22;13988;52.446;13.280;2024-01-10T06:04:54;-7.50;99.90
26262;DHT22;13988;52.446;13.280;2024-01-10T06:07:19;-7.50;99.90
26262;DHT22;13988;52.446;13.280;2024-01-10T06:09:46;-7.50;99.90
26262;DHT22;13988;52.446;13.280;2024-01-10T06:12:13;-7.50;99.90
26262;DHT22;13988;52.446;13.280;2024-01-10T06:14:38;-7.50;99.90
26262;DHT22;13988;52.446;13.280;2024-01-10T06:17:04;-7.50;99.90
26262;DHT22;13988;52.446;13.280;2024-01-10T06:19:30;-7.50;99.90
26262;DHT22;13988;52.446;13.280;2024-01-10T06:21:59;-7.50;99.90
26262;DHT22;13988;52.446;13.280;2024-01-10T06:24:25;-7.60;99.90
26262;DHT22;13988;52.446;13.280;2024-01-10T06:26:51;-7.60;99.90
26262;DHT22;13988;52.446;13.280;2024-01-10T06:29:18;-7.50;99.90
26262;DHT22;13988;52.446;13.280;2024-01-10T06:31:43;-7.50;99.90
26262;DHT22;13988;52.446;13.280;2024-01-10T06:34:09;-7.50;99.90
26262;DHT22;13988;52.446;13.280;2024-01-10T06:36:35;-7.50;99.90
26262;DHT22;13988;52.446;13.280;2024-01-10T06:39:00;-7.60;99.90
26262;DHT22;13988;52.446;13.280;2024-01-10T06:41:26;-7.60;99.90
26262;DHT22;13988;52.446;13.280;2024-01-10T06:43:53;-7.60;99.90
26262;DHT22;13988;52.446;13.280;2024-01-10T06:46:19;-7.60;99.90
26262;DHT22;13988;52.446;13.280;2024-01-10T06:48:44;-7.70;99.90
26262;DHT22;13988;52.446;13.280;2024-01-10T06:51:12;-7.70;99.90
26262;DHT22;13988;52.446;13.280;2024-01-10T06:53:38;-7.60;99.90
26262;DHT22;13988;52.446;13.280;2024-01-10T06:56:05;-7.70;99.90
26262;DHT22;13988;52.446;13.280;2024-01-10T06:58:30;-7.70;99.90
26262;DHT22;13988;52.446;13.280;2024-01-10T07:00:56;-7.70;99.90
26262;DHT22;13988;52.446;13.280;2024-01-10T07:03:22;-7.70;99.90
26262;DHT22;13988;52.446;13.280;2024-01-10T07:05:47;-7.70;99.90
26262;DHT22;13988;52.446;13.280;2024-01-10T07:08:14;-7.70;99.90
26262;DHT22;13988;52.446;13.280;2024-01-10T07:10:40;-7.70;99.90
26262;DHT22;13988;52.446;13.280;2024-01-10T07:13:05;-7.70;99.90
26262;DHT22;13988;52.446;13.280;2024-01-10T07:15:32;-7.70;99.90
26262;DHT22;13988;52.446;13.280;2024-01-10T07:17:57;-7.70;99.90
26262;DHT22;13988;52.446;13.280;2024-01-10T07:20:23;-7.70;99.90
26262;DHT22;13988;52.446;13.280;2024-01-10T07:22:50;-7.60;99.90
26262;DHT22;13988;52.446;13.280;2024-01-10T07:25:17;-7.60;99.90
26262;DHT22;13988;52.446;13.280;2024-01-10T07:27:43;-7.60;99.90
26262;DHT22;13988;52.446;13.280;2024-01-10T07:30:09;-7.50;99.90
26262;DHT22;13988;52.446;13.280;2024-01-10T07:32:42;-7.60;99.90
26262;DHT22;13988;52.446;13.280;2024-01-10T07:35:09;-7.70;99.90
26262;DHT22;13988;52.446;13.280;2024-01-10T07:37:38;-7.60;99.90
26262;DHT22;13988;52.446;13.280;2024-01-10T07:40:05;-7.60;99.90
26262;DHT22;13988;52.446;13.280;2024-01-10T07:42:32;-7.60;99.90
26262;DHT22;13988;52.446;13.280;2024-01-10T07:44:58;-7.60;99.90
26262;DHT22;13988;52.446;13.280;2024-01-10T07:47:24;-7.60;99.90
26262;DHT22;13988;52.446;13.280;2024-01-10T07:49:49;-7.70;99.90
26262;DHT22;13988;52.446;13.280;2024-01-10T07:52:15;-7.60;99.90
26262;DHT22;13988;52.446;13.280;2024-01-10T07:54:44;-7.60;99.90
26262;DHT22;13988;52.446;13.280;2024-01-10T07:57:10;-7.50;99.90
26262;DHT22;13988;52.446;13.280;2024-01-10T07:59:36;-7.50;99.90
26262;DHT22;13988;52.446;13.280;2024-01-10T08:02:02;-7.50;99.90
26262;DHT22;13988;52.446;13.280;2024-01-10T08:04:27;-7.40;99.90
26262;DHT22;13988;52.446;13.280;2024-01-10T08:06:55;-7.30;99.90
26262;DHT22;13988;52.446;13.280;2024-01-10T08:09:21;-7.20;99.90
26262;DHT22;13988;52.446;13.280;2024-01-10T08:11:47;-7.20;99.90
26262;DHT22;13988;52.446;13.280;2024-01-10T08:14:14;-7.30;99.90
26262;DHT22;13988;52.446;13.280;2024-01-10T08:16:40;-7.10;99.90
26262;DHT22;13988;52.446;13.280;2024-01-10T08:19:07;-7.00;99.90
26262;DHT22;13988;52.446;13.280;2024-01-10T08:21:32;-7.00;99.90
26262;DHT22;13988;52.446;13.280;2024-01-10T08:23:58;-7.00;99.90
26262;DHT22;13988;52.446;13.280;2024-01-10T08:26:23;-7.00;99.90
26262;DHT22;13988;52.446;13.280;2024-01-10T08:28:49;-7.00;99.90
26262;DHT22;13988;52.446;13.280;2024-01-10T08:31:17;-6.90;99.90
26262;DHT22;13988;52.446;13.280;2024-01-10T08:33:43;-6.90;99.90
26262;DHT22;13988;52.446;13.280;2024-01-10T08:36:09;-6.80;99.90
26262;DHT22;13988;52.446;13.280;2024-01-10T08:38:38;-6.70;99.90
26262;DHT22;13988;52.446;13.280;2024-01-10T08:41:04;-6.60;99.90
26262;DHT22;13988;52.446;13.280;2024-01-10T08:43:29;-6.60;99.90
26262;DHT22;13988;52.446;13.280;2024-01-10T08:45:56;-6.60;99.90
26262;DHT22;13988;52.446;13.280;2024-01-10T08:48:23;-6.40;99.90
26262;DHT22;13988;52.446;13.280;2024-01-10T08:50:50;-6.30;99.90
26262;DHT22;13988;52.446;13.280;2024-01-10T08:53:16;-6.20;99.90
26262;DHT22;13988;52.446;13.280;2024-01-10T08:55:42;-6.10;99.90
26262;DHT22;13988;52.446;13.280;2024-01-10T08:58:07;-6.00;99.90
26262;DHT22;13988;52.446;13.280;2024-01-10T09:00:33;-6.00;99.90
26262;DHT22;13988;52.446;13.280;2024-01-10T09:03:00;-5.90;99.90
26262;DHT22;13988;52.446;13.280;2024-01-10T09:05:26;-6.00;99.90
26262;DHT22;13988;52.446;13.280;2024-01-10T09:07:51;-5.80;99.90
26262;DHT22;13988;52.446;13.280;2024-01-10T09:10:19;-5.70;99.90
26262;DHT22;13988;52.446;13.280;2024-01-10T09:12:47;-5.50;99.90
26262;DHT22;13988;52.446;13.280;2024-01-10T09:15:12;-5.50;99.90
26262;DHT22;13988;52.446;13.280;2024-01-10T09:17:43;-5.60;99.90
26262;DHT22;13988;52.446;13.280;2024-01-10T09:20:09;-5.50;99.90
26262;DHT22;13988;52.446;13.280;2024-01-10T09:22:35;-5.40;99.90
26262;DHT22;13988;52.446;13.280;2024-01-10T09:25:01;-5.30;99.90
26262;DHT22;13988;52.446;13.280;2024-01-10T09:27:32;-5.30;99.90
26262;DHT22;13988;52.446;13.280;2024-01-10T09:30:03;-5.20;99.90
26262;DHT22;13988;52.446;13.280;2024-01-10T09:32:29;-5.30;99.90
26262;DHT22;13988;52.446;13.280;2024-01-10T09:34:55;-5.20;99.90
26262;DHT22;13988;52.446;13.280;2024-01-10T09:37:21;-5.10;99.90
26262;DHT22;13988;52.446;13.280;2024-01-10T09:39:47;-5.10;99.90
26262;DHT22;13988;52.446;13.280;2024-01-10T09:42:14;-5.20;99.90
26262;DHT22;13988;52.446;13.280;2024-01-10T09:44:41;-5.10;99.90
26262;DHT22;13988;52.446;13.280;2024-01-10T09:47:07;-4.80;99.90
26262;DHT22;13988;52.446;13.280;2024-01-10T09:49:34;-4.70;99.90
26262;DHT22;13988;52.446;13.280;2024-01-10T09:52:04;-4.80;99.90
26262;DHT22;13988;52.446;13.280;2024-01-10T09:54:30;-4.80;99.90
26262;DHT22;13988;52.446;13.280;2024-01-10T09:56:59;-4.80;99.90
26262;DHT22;13988;52.446;13.280;2024-01-10T09:59:25;-4.90;99.90
26262;DHT22;13988;52.446;13.280;2024-01-10T10:01:55;-4.70;99.90
26262;DHT22;13988;52.446;13.280;2024-01-10T10:04:22;-4.50;99.90
26262;DHT22;13988;52.446;13.280;2024-01-10T10:06:58;-4.40;99.90
26262;DHT22;13988;52.446;13.280;2024-01-10T10:09:25;-4.30;99.90
26262;DHT22;13988;52.446;13.280;2024-01-10T10:11:56;-4.40;99.90
26262;DHT22;13988;52.446;13.280;2024-01-10T10:14:23;-4.40;99.90
26262;DHT22;13988;52.446;13.280;2024-01-10T10:16:51;-4.20;99.90
26262;DHT22;13988;52.446;13.280;2024-01-10T10:19:24;-4.30;99.90
26262;DHT22;13988;52.446;13.280;2024-01-10T10:21:50;-4.10;99.90
26262;DHT22;13988;52.446;13.280;2024-01-10T10:24:16;-3.90;99.90
26262;DHT22;13988;52.446;13.280;2024-01-10T10:26:42;-3.90;99.90
26262;DHT22;13988;52.446;13.280;2024-01-10T10:29:09;-3.60;99.90
26262;DHT22;13988;52.446;13.280;2024-01-10T10:31:35;-3.70;99.90
26262;DHT22;13988;52.446;13.280;2024-01-10T10:34:01;-3.80;99.90
26262;DHT22;13988;52.446;13.280;2024-01-10T10:36:29;-3.80;99.90
26262;DHT22;13988;52.446;13.280;2024-01-10T10:38:55;-3.60;99.90
26262;DHT22;13988;52.446;13.280;2024-01-10T10:41:21;-3.40;99.90
26262;DHT22;13988;52.446;13.280;2024-01-10T10:43:47;-3.50;99.90
26262;DHT22;13988;52.446;13.280;2024-01-10T10:46:15;-3.60;99.90
26262;DHT22;13988;52.446;13.280;2024-01-10T10:48:42;-3.50;99.90
26262;DHT22;13988;52.446;13.280;2024-01-10T10:51:08;-3.50;99.90
26262;DHT22;13988;52.446;13.280;2024-01-10T10:53:36;-3.50;99.90
26262;DHT22;13988;52.446;13.280;2024-01-10T10:56:06;-3.60;99.90
26262;DHT22;13988;52.446;13.280;2024-01-10T10:58:40;-3.60;99.90
26262;DHT22;13988;52.446;13.280;2024-01-10T11:01:07;-3.60;99.90
26262;DHT22;13988;52.446;13.280;2024-01-10T11:03:37;-3.40;99.90
26262;DHT22;13988;52.446;13.280;2024-01-10T11:06:04;-3.30;99.90
26262;DHT22;13988;52.446;13.280;2024-01-10T11:08:38;-3.30;99.90
26262;DHT22;13988;52.446;13.280;2024-01-10T11:11:14;-3.20;99.90
26262;DHT22;13988;52.446;13.280;2024-01-10T11:14:06;-3.20;99.90
26262;DHT22;13988;52.446;13.280;2024-01-10T11:19:52;-3.00;99.90
26262;DHT22;13988;52.446;13.280;2024-01-10T11:22:27;-2.90;99.90
26262;DHT22;13988;52.446;13.280;2024-01-10T11:24:54;-2.80;99.90
26262;DHT22;13988;52.446;13.280;2024-01-10T11:27:21;-2.80;99.90
26262;DHT22;13988;52.446;13.280;2024-01-10T11:29:46;-2.80;99.90
26262;DHT22;13988;52.446;13.280;2024-01-10T11:32:17;-2.60;99.90
26262;DHT22;13988;52.446;13.280;2024-01-10T11:34:59;-2.70;99.90
26262;DHT22;13988;52.446;13.280;2024-01-10T11:37:43;-2.50;99.90
26262;DHT22;13988;52.446;13.280;2024-01-10T11:40:09;-2.60;99.90
26262;DHT22;13988;52.446;13.280;2024-01-10T11:45:07;-2.50;99.90
26262;DHT22;13988;52.446;13.280;2024-01-10T11:47:33;-2.30;99.90
26262;DHT22;13988;52.446;13.280;2024-01-10T11:50:02;-2.20;99.90
26262;DHT22;13988;52.446;13.280;2024-01-10T11:52:36;-2.30;99.90
26262;DHT22;13988;52.446;13.280;2024-01-10T11:55:02;-2.10;99.90
26262;DHT22;13988;52.446;13.280;2024-01-10T11:57:29;-2.10;99.90
26262;DHT22;13988;52.446;13.280;2024-01-10T11:59:58;-2.10;99.90
26262;DHT22;13988;52.446;13.280;2024-01-10T12:02:26;-2.00;99.90
26262;DHT22;13988;52.446;13.280;2024-01-10T12:04:54;-1.90;99.90
26262;DHT22;13988;52.446;13.280;2024-01-10T12:07:20;-1.90;99.90
26262;DHT22;13988;52.446;13.280;2024-01-10T12:09:47;-1.90;99.90
26262;DHT22;13988;52.446;13.280;2024-01-10T12:12:13;-1.80;99.90
26262;DHT22;13988;52.446;13.280;2024-01-10T12:14:40;-1.20;99.90
26262;DHT22;13988;52.446;13.280;2024-01-10T12:17:06;-0.50;99.90
26262;DHT22;13988;52.446;13.280;2024-01-10T12:19:34;0.40;80.40
26262;DHT22;13988;52.446;13.280;2024-01-10T12:22:01;1.60;99.90
26262;DHT22;13988;52.446;13.280;2024-01-10T12:24:30;1.80;57.20
26262;DHT22;13988;52.446;13.280;2024-01-10T12:26:56;2.30;59.40
26262;DHT22;13988;52.446;13.280;2024-01-10T12:29:22;2.10;53.90
26262;DHT22;13988;52.446;13.280;2024-01-10T12:31:48;3.70;56.20
26262;DHT22;13988;52.446;13.280;2024-01-10T12:34:14;3.60;52.20
26262;DHT22;13988;52.446;13.280;2024-01-10T12:36:41;2.20;37.60
26262;DHT22;13988;52.446;13.280;2024-01-10T12:39:07;0.90;38.00
26262;DHT22;13988;52.446;13.280;2024-01-10T12:41:33;0.90;40.40
26262;DHT22;13988;52.446;13.280;2024-01-10T12:44:00;1.60;39.30
26262;DHT22;13988;52.446;13.280;2024-01-10T12:46:29;1.20;39.00
26262;DHT22;13988;52.446;13.280;2024-01-10T12:49:06;2.00;45.40
26262;DHT22;13988;52.446;13.280;2024-01-10T12:51:33;1.40;45.90
26262;DHT22;13988;52.446;13.280;2024-01-10T12:54:00;0.80;57.00
26262;DHT22;13988;52.446;13.280;2024-01-10T12:56:26;0.50;68.80
26262;DHT22;13988;52.446;13.280;2024-01-10T12:58:53;0.10;63.60
26262;DHT22;13988;52.446;13.280;2024-01-10T13:01:18;0.20;56.20
26262;DHT22;13988;52.446;13.280;2024-01-10T13:03:44;0.90;56.10
26262;DHT22;13988;52.446;13.280;2024-01-10T13:06:10;2.20;51.60
26262;DHT22;13988;52.446;13.280;2024-01-10T13:08:36;2.30;42.60
26262;DHT22;13988;52.446;13.280;2024-01-10T13:11:02;1.10;42.60
26262;DHT22;13988;52.446;13.280;2024-01-10T13:13:34;1.70;41.80
26262;DHT22;13988;52.446;13.280;2024-01-10T13:15:59;3.10;38.80
26262;DHT22;13988;52.446;13.280;2024-01-10T13:18:25;2.00;35.40
26262;DHT22;13988;52.446;13.280;2024-01-10T13:20:54;1.60;37.20
26262;DHT22;13988;52.446;13.280;2024-01-10T13:23:20;1.70;38.30
26262;DHT22;13988;52.446;13.280;2024-01-10T13:25:48;2.40;38.40
26262;DHT22;13988;52.446;13.280;2024-01-10T13:28:14;2.60;34.40
26262;DHT22;13988;52.446;13.280;2024-01-10T13:30:41;2.40;35.90
26262;DHT22;13988;52.446;13.280;2024-01-10T13:33:08;2.60;37.40
26262;DHT22;13988;52.446;13.280;2024-01-10T13:35:38;1.40;33.60
26262;DHT22;13988;52.446;13.280;2024-01-10T13:38:04;1.50;36.00
26262;DHT22;13988;52.446;13.280;2024-01-10T13:40:30;1.80;35.20
26262;DHT22;13988;52.446;13.280;2024-01-10T13:42:57;2.20;33.80
26262;DHT22;13988;52.446;13.280;2024-01-10T13:45:22;2.50;34.90
26262;DHT22;13988;52.446;13.280;2024-01-10T13:47:48;2.00;33.30
26262;DHT22;13988;52.446;13.280;2024-01-10T13:50:16;2.40;32.90
26262;DHT22;13988;52.446;13.280;2024-01-10T13:52:42;2.30;31.20
26262;DHT22;13988;52.446;13.280;2024-01-10T13:55:08;2.10;30.40
26262;DHT22;13988;52.446;13.280;2024-01-10T13:57:35;1.50;30.00
26262;DHT22;13988;52.446;13.280;2024-01-10T14:00:02;1.40;31.50
26262;DHT22;13988;52.446;13.280;2024-01-10T14:02:29;1.30;32.20
26262;DHT22;13988;52.446;13.280;2024-01-10T14:04:54;1.30;32.50
26262;DHT22;13988;52.446;13.280;2024-01-10T14:07:22;1.50;32.00
26262;DHT22;13988;52.446;13.280;2024-01-10T14:09:48;1.70;30.60
26262;DHT22;13988;52.446;13.280;2024-01-10T14:12:14;1.60;30.40
26262;DHT22;13988;52.446;13.280;2024-01-10T14:14:40;1.60;30.70
26262;DHT22;13988;52.446;13.280;2024-01-10T14:17:06;1.30;31.20
26262;DHT22;13988;52.446;13.280;2024-01-10T14:19:31;1.00;31.80
26262;DHT22;13988;52.446;13.280;2024-01-10T14:21:58;0.60;32.50
26262;DHT22;13988;52.446;13.280;2024-01-10T14:24:23;0.30;35.80
26262;DHT22;13988;52.446;13.280;2024-01-10T14:26:50;-0.10;38.20
26262;DHT22;13988;52.446;13.280;2024-01-10T14:29:16;-0.30;39.10
26262;DHT22;13988;52.446;13.280;2024-01-10T14:31:41;-0.50;41.20
26262;DHT22;13988;52.446;13.280;2024-01-10T14:34:07;-0.60;43.60
26262;DHT22;13988;52.446;13.280;2024-01-10T14:36:33;-0.70;45.90
26262;DHT22;13988;52.446;13.280;2024-01-10T14:38:59;-0.90;52.80
26262;DHT22;13988;52.446;13.280;2024-01-10T14:41:24;-0.80;51.20
26262;DHT22;13988;52.446;13.280;2024-01-10T14:43:50;-0.90;53.40
26262;DHT22;13988;52.446;13.280;2024-01-10T14:46:16;-0.70;54.20
26262;DHT22;13988;52.446;13.280;2024-01-10T14:48:42;-0.90;58.00
26262;DHT22;13988;52.446;13.280;2024-01-10T14:51:07;-1.00;62.40
26262;DHT22;13988;52.446;13.280;2024-01-10T14:53:33;-1.20;69.60
26262;DHT22;13988;52.446;13.280;2024-01-10T14:56:02;-1.30;82.30
26262;DHT22;13988;52.446;13.280;2024-01-10T14:58:28;-1.40;93.10
26262;DHT22;13988;52.446;13.280;2024-01-10T15:00:54;-1.50;98.10
26262;DHT22;13988;52.446;13.280;2024-01-10T15:03:20;-1.50;99.90
26262;DHT22;13988;52.446;13.280;2024-01-10T15:05:46;-1.60;99.90
26262;DHT22;13988;52.446;13.280;2024-01-10T15:08:13;-1.70;99.90
26262;DHT22;13988;52.446;13.280;2024-01-10T15:10:39;-1.90;99.90
26262;DHT22;13988;52.446;13.280;2024-01-10T15:13:09;-1.90;99.90
26262;DHT22;13988;52.446;13.280;2024-01-10T15:15:37;-2.00;99.90
26262;DHT22;13988;52.446;13.280;2024-01-10T15:18:04;-2.10;99.90
26262;DHT22;13988;52.446;13.280;2024-01-10T15:20:30;-2.10;99.90